Royal Oak Township, Michigan
Current Conditions -  °F | °C
As of 12:53 AM on Thursday 23 Oct 2014 (Local Time) from KDET Reporting Station
Clear Clear  
Wind Chill: 39°   Ceiling: Unl
Heat Index: 43°   Visibility: 10mi
Dew Point: 37°   Wind: 6mph
Humidity: 80%   Direction: 340°NNW
Pressure: 30.27"   Gusts: NA
Location:  42.4581°N, 83.135°W
Report Text: KDET 230453Z 34005KT 10SM CLR 06/03 A3027 RMK AO2 SLP254 T00610028 401500061
Loading
Personal Weather Stations






























Interactive Weather Map
Tropical Storm Tracking
New forecast layout! Learn more

10-Day Weather Forecast

Advertisements
Track Severe Weather on mobile